createdAt,value
2023-05-08T00:00:00.288Z,100821.69
2023-05-08T00:02:28.704Z,100817.41
2023-05-08T00:04:56.904Z,100824.34
2023-05-08T00:07:26.640Z,100826.50
2023-05-08T00:09:54.726Z,100834.50
2023-05-08T00:12:22.972Z,100827.28
2023-05-08T00:14:51.115Z,100831.78
2023-05-08T00:17:19.317Z,100828.25
2023-05-08T00:19:47.396Z,100831.22
2023-05-08T00:22:15.764Z,100831.78
2023-05-08T00:24:45.267Z,100827.53
2023-05-08T00:27:13.580Z,100829.13
2023-05-08T00:29:41.839Z,100825.91
2023-05-08T00:32:10.238Z,100829.13
2023-05-08T00:34:38.207Z,100825.38
2023-05-08T00:37:06.473Z,100830.72
2023-05-08T00:39:34.464Z,100825.38
2023-05-08T00:42:04.196Z,100813.06
2023-05-08T00:44:32.265Z,100819.47
2023-05-08T00:47:00.630Z,100821.06
2023-05-08T00:49:28.944Z,100825.09
2023-05-08T00:51:57.564Z,100815.72
2023-05-08T00:54:27.478Z,100825.88
2023-05-08T00:56:56.392Z,100828.81
2023-05-08T00:59:26.770Z,100825.88
2023-05-08T01:01:55.292Z,100824.81
2023-05-08T01:04:26.595Z,100825.59
2023-05-08T01:06:54.991Z,100823.75
2023-05-08T01:09:23.248Z,100831.81
2023-05-08T01:11:57.770Z,100832.88
2023-05-08T01:14:31.991Z,100834.47
2023-05-08T01:17:10.370Z,100832.88
2023-05-08T01:19:56.352Z,100833.66
2023-05-08T01:22:40.307Z,100839.25
2023-05-08T01:25:29.938Z,100833.88
2023-05-08T01:28:14.691Z,100836.84
2023-05-08T01:31:10.917Z,100842.97
2023-05-08T01:33:44.555Z,100841.16
2023-05-08T01:36:20.030Z,100848.66
2023-05-08T01:38:54.956Z,100843.56
2023-05-08T01:41:27.618Z,100837.41
2023-05-08T01:44:04.590Z,100838.22
2023-05-08T01:46:33.994Z,100843.56
2023-05-08T01:49:06.500Z,100843.03
2023-05-08T01:51:38.488Z,100846.78
2023-05-08T01:54:10.435Z,100841.44
2023-05-08T01:56:39.231Z,100849.97
2023-05-08T01:59:07.934Z,100851.00
2023-05-08T02:01:36.168Z,100854.47
2023-05-08T02:04:07.449Z,100862.28
2023-05-08T02:06:36.028Z,100845.16
2023-05-08T02:09:04.417Z,100858.50
2023-05-08T02:11:33.369Z,100859.88
2023-05-08T02:14:02.508Z,100852.66
2023-05-08T02:16:30.994Z,100852.66
2023-05-08T02:19:01.643Z,100852.66
2023-05-08T02:21:31.900Z,100842.25
2023-05-08T02:24:00.856Z,100852.44
2023-05-08T02:26:29.564Z,100855.88
2023-05-08T02:28:58.491Z,100848.38
2023-05-08T02:31:26.593Z,100856.94
2023-05-08T02:33:55.405Z,100850.50
2023-05-08T02:36:24.263Z,100853.19
2023-05-08T02:38:55.677Z,100854.81
2023-05-08T02:41:25.169Z,100860.41
2023-05-08T02:43:53.450Z,100856.94
2023-05-08T02:46:26.146Z,100857.47
2023-05-08T02:48:58.138Z,100866.00
2023-05-08T02:51:29.821Z,100864.41
2023-05-08T02:54:10.315Z,100863.88
2023-05-08T02:56:40.548Z,100868.19
2023-05-08T02:59:15.267Z,100862.03
2023-05-08T03:01:48.513Z,100864.97
2023-05-08T03:04:26.488Z,100868.41
2023-05-08T03:06:57.755Z,100862.81
2023-05-08T03:09:29.535Z,100863.88
2023-05-08T03:12:02.255Z,100854.28
2023-05-08T03:14:33.450Z,100864.16
2023-05-08T03:17:03.342Z,100857.72
2023-05-08T03:19:35.746Z,100854.84
2023-05-08T03:22:07.414Z,100856.41
2023-05-08T03:24:38.273Z,100858.00
2023-05-08T03:27:08.038Z,100866.31
2023-05-08T03:29:37.364Z,100851.63
2023-05-08T03:32:06.093Z,100866.53
2023-05-08T03:34:35.230Z,100853.19
2023-05-08T03:37:03.339Z,100867.34
2023-05-08T03:39:31.743Z,100863.34
2023-05-08T03:42:01.088Z,100865.22
2023-05-08T03:44:31.072Z,100861.22
2023-05-08T03:46:59.471Z,100852.13
2023-05-08T03:49:30.421Z,100864.44
2023-05-08T03:51:58.955Z,100865.78
2023-05-08T03:54:28.477Z,100859.06
2023-05-08T03:56:56.864Z,100862.31
2023-05-08T03:59:32.854Z,100863.91
2023-05-08T04:02:11.877Z,100857.50
2023-05-08T04:04:41.903Z,100860.75
2023-05-08T04:07:15.887Z,100869.84
2023-05-08T04:09:55.951Z,100872.00
2023-05-08T04:12:33.131Z,100874.72
2023-05-08T04:15:06.555Z,100866.16
2023-05-08T04:17:40.841Z,100866.16
2023-05-08T04:20:13.160Z,100866.16
2023-05-08T04:22:41.733Z,100866.69
2023-05-08T04:25:12.627Z,100865.34
2023-05-08T04:27:40.966Z,100855.47
2023-05-08T04:30:11.592Z,100868.56
2023-05-08T04:32:42.220Z,100881.66
2023-05-08T04:35:13.277Z,100876.31
2023-05-08T04:37:42.733Z,100881.16
2023-05-08T04:40:11.989Z,100885.94
2023-05-08T04:42:43.039Z,100884.88
2023-05-08T04:45:13.617Z,100880.59
2023-05-08T04:47:42.051Z,100889.38
2023-05-08T04:50:11.696Z,100893.97
2023-05-08T04:52:39.910Z,100895.56
2023-05-08T04:55:10.152Z,100897.72
2023-05-08T04:57:40.118Z,100901.19
2023-05-08T05:00:10.666Z,100899.59
2023-05-08T05:02:43.088Z,100907.34
2023-05-08T05:05:12.557Z,100911.59
2023-05-08T05:07:41.418Z,100911.56
2023-05-08T05:10:10.807Z,100907.25
2023-05-08T05:12:39.312Z,100914.22
2023-05-08T05:15:08.675Z,100921.47
2023-05-08T05:17:38.623Z,100914.81
2023-05-08T05:20:10.068Z,100920.16
2023-05-08T05:22:38.864Z,100922.28
2023-05-08T05:25:07.949Z,100923.31
2023-05-08T05:27:37.017Z,100912.66
2023-05-08T05:30:08.103Z,100916.91
2023-05-08T05:32:36.374Z,100924.41
2023-05-08T05:35:05.145Z,100927.59
2023-05-08T05:37:34.941Z,100926.53
2023-05-08T05:40:03.472Z,100933.47
2023-05-08T05:42:33.409Z,100937.22
2023-05-08T05:45:02.075Z,100938.81
2023-05-08T05:47:32.396Z,100931.84
2023-05-08T05:50:03.214Z,100940.97
2023-05-08T05:52:31.823Z,100944.69
2023-05-08T05:55:01.504Z,100936.66
2023-05-08T05:57:31.806Z,100934.47
2023-05-08T06:00:00.782Z,100934.44
2023-05-08T06:02:29.023Z,100937.13
2023-05-08T06:04:57.833Z,100939.31
2023-05-08T06:07:25.868Z,100940.63
2023-05-08T06:09:54.215Z,100941.44
2023-05-08T06:12:24.077Z,100939.34
2023-05-08T06:14:52.763Z,100943.06
2023-05-08T06:17:20.862Z,100938.22
2023-05-08T06:19:50.474Z,100943.59
2023-05-08T06:22:18.549Z,100942.50
2023-05-08T06:24:47.045Z,100942.53
2023-05-08T06:27:15.081Z,100941.94
2023-05-08T06:29:44.697Z,100946.50
2023-05-08T06:32:12.728Z,100948.91
2023-05-08T06:34:41.230Z,100947.84
2023-05-08T06:37:09.368Z,100948.38
2023-05-08T06:39:37.681Z,100948.38
2023-05-08T06:42:06.481Z,100950.50
2023-05-08T06:44:40.582Z,100943.56
2023-05-08T06:47:09.978Z,100946.78
2023-05-08T06:49:38.324Z,100950.00
2023-05-08T06:52:06.295Z,100948.38
2023-05-08T06:54:34.542Z,100951.59
2023-05-08T06:57:02.504Z,100954.28
2023-05-08T06:59:30.791Z,100955.91
2023-05-08T07:01:59.355Z,100963.06
2023-05-08T07:04:30.853Z,100965.97
2023-05-08T07:07:00.401Z,100967.66
2023-05-08T07:09:28.630Z,100962.53
2023-05-08T07:11:56.653Z,100962.81
2023-05-08T07:14:24.892Z,100968.63
2023-05-08T07:16:52.880Z,100969.75
2023-05-08T07:19:22.524Z,100967.09
2023-05-08T07:21:52.137Z,100973.53
2023-05-08T07:24:20.499Z,100973.00
2023-05-08T07:26:48.540Z,100975.56
2023-05-08T07:29:16.782Z,100971.84
2023-05-08T07:31:45.807Z,100977.19
2023-05-08T07:34:14.117Z,100970.84
2023-05-08T07:36:42.190Z,100969.78
2023-05-08T07:39:12.041Z,100979.41
2023-05-08T07:41:40.978Z,100973.53
2023-05-08T07:44:09.398Z,100973.53
2023-05-08T07:46:37.950Z,100976.75
2023-05-08T07:49:06.198Z,100983.66
2023-05-08T07:51:34.282Z,100979.28
2023-05-08T07:54:02.569Z,100984.13
2023-05-08T07:56:32.013Z,100984.59
2023-05-08T07:59:00.391Z,100982.41
2023-05-08T08:01:28.349Z,100981.94
2023-05-08T08:03:56.708Z,100983.03
2023-05-08T08:06:25.034Z,100987.31
2023-05-08T08:08:53.270Z,100985.72
2023-05-08T08:11:21.286Z,100989.09
2023-05-08T08:13:50.907Z,100988.19
2023-05-08T08:16:18.950Z,100988.22
2023-05-08T08:18:47.178Z,100990.38
2023-05-08T08:21:15.199Z,100989.47
2023-05-08T08:23:43.653Z,100982.81
2023-05-08T08:26:11.668Z,100983.66
2023-05-08T08:28:39.935Z,100989.03
2023-05-08T08:31:09.479Z,100990.25
2023-05-08T08:33:37.771Z,100993.41
2023-05-08T08:36:06.510Z,100987.53
2023-05-08T08:38:34.774Z,100989.13
2023-05-08T08:41:03.844Z,100990.72
2023-05-08T08:43:32.128Z,100993.22
2023-05-08T08:46:01.024Z,100986.34
2023-05-08T08:48:31.253Z,100988.09
2023-05-08T08:51:00.763Z,100988.91
2023-05-08T08:53:34.308Z,100987.56
2023-05-08T08:56:03.122Z,100984.34
2023-05-08T08:58:36.572Z,100997.72
2023-05-08T09:01:06.520Z,100992.28
2023-05-08T09:03:36.304Z,100994.03
2023-05-08T09:06:04.702Z,100989.84
2023-05-08T09:08:33.465Z,100999.41
2023-05-08T09:11:03.137Z,100999.38
2023-05-08T09:13:31.582Z,100990.72
2023-05-08T09:15:59.927Z,101002.56
2023-05-08T09:18:28.264Z,101007.63
2023-05-08T09:20:57.615Z,101000.91
2023-05-08T09:23:26.286Z,101001.44
2023-05-08T09:25:54.544Z,101012.47
2023-05-08T09:28:24.164Z,101013.56
2023-05-08T09:30:53.738Z,101007.22
2023-05-08T09:33:23.944Z,101006.00
2023-05-08T09:35:52.448Z,101014.34
2023-05-08T09:38:40.305Z,101009.06
2023-05-08T09:41:09.920Z,101010.97
2023-05-08T09:43:38.609Z,101018.94
2023-05-08T09:46:23.352Z,101026.00
2023-05-08T09:48:52.489Z,101026.75
2023-05-08T09:51:22.364Z,101025.97
2023-05-08T09:53:54.002Z,101026.88
2023-05-08T09:56:35.363Z,101030.03
2023-05-08T09:59:06.265Z,101026.84
2023-05-08T10:01:35.778Z,101032.69
2023-05-08T10:04:05.854Z,101038.66
2023-05-08T10:06:36.263Z,101040.84
2023-05-08T10:09:10.110Z,101039.25
2023-05-08T10:11:39.250Z,101036.31
2023-05-08T10:14:07.508Z,101041.91
2023-05-08T10:16:40.787Z,101045.16
2023-05-08T10:19:14.364Z,101032.75
2023-05-08T10:21:44.556Z,101026.94
2023-05-08T10:24:17.818Z,101035.41
2023-05-08T10:27:05.609Z,101037.97
2023-05-08T10:29:42.734Z,101025.78
2023-05-08T10:32:11.517Z,101033.72
2023-05-08T10:34:42.166Z,101040.34
2023-05-08T10:37:10.881Z,101035.97
2023-05-08T10:39:41.675Z,101030.53
2023-05-08T10:42:09.843Z,101030.53
2023-05-08T10:44:39.532Z,101030.44
2023-05-08T10:47:12.004Z,101021.81
2023-05-08T10:49:46.176Z,101024.94
2023-05-08T10:52:19.486Z,101018.94
2023-05-08T10:55:10.678Z,101016.09
2023-05-08T10:57:38.788Z,101020.69
2023-05-08T11:00:08.489Z,101017.38
2023-05-08T11:02:38.223Z,101010.84
2023-05-08T11:05:16.494Z,101018.31
2023-05-08T11:07:57.592Z,101012.88
2023-05-08T11:10:32.914Z,101002.25
2023-05-08T11:13:01.223Z,101006.97
2023-05-08T11:15:39.334Z,101005.88
2023-05-08T11:18:08.843Z,101003.69
2023-05-08T11:20:40.815Z,101002.72
2023-05-08T11:23:25.047Z,101004.59
2023-05-08T11:26:02.221Z,101008.41
2023-05-08T11:28:34.308Z,101006.00
2023-05-08T11:31:05.079Z,101004.66
2023-05-08T11:33:33.903Z,100991.75
2023-05-08T11:36:14.379Z,100996.38
2023-05-08T11:38:43.626Z,100990.84
2023-05-08T11:41:21.870Z,100984.06
2023-05-08T11:44:15.265Z,100990.84
2023-05-08T11:46:45.751Z,100985.09
2023-05-08T11:49:16.653Z,100981.91
2023-05-08T11:51:46.183Z,100981.88
2023-05-08T11:54:15.982Z,100980.97
2023-05-08T11:56:47.824Z,100978.28
2023-05-08T11:59:16.783Z,100982.44
2023-05-08T12:01:50.859Z,100983.22
2023-05-08T12:04:24.842Z,100988.50
2023-05-08T12:06:58.327Z,100992.41
2023-05-08T12:09:26.315Z,100987.22
2023-05-08T12:11:59.032Z,100992.19
2023-05-08T12:14:28.137Z,100989.13
2023-05-08T12:16:56.426Z,100981.25
2023-05-08T12:19:24.518Z,100987.72
2023-05-08T12:21:52.767Z,100988.44
2023-05-08T12:24:23.644Z,100990.44
2023-05-08T12:26:55.345Z,100991.47
2023-05-08T12:29:27.239Z,100999.66
2023-05-08T12:31:55.804Z,100985.25
2023-05-08T12:34:23.877Z,100989.38
2023-05-08T12:37:03.235Z,100990.53
2023-05-08T12:39:36.340Z,100994.44
2023-05-08T12:42:04.848Z,100995.06
2023-05-08T12:44:34.182Z,100990.28
2023-05-08T12:47:02.520Z,100987.84
2023-05-08T12:49:31.906Z,100976.38
2023-05-08T12:52:04.713Z,100978.06
2023-05-08T12:54:34.043Z,100975.28
2023-05-08T12:57:02.278Z,100983.28
2023-05-08T12:59:30.636Z,100979.88
2023-05-08T13:02:00.459Z,100978.00
2023-05-08T13:04:28.762Z,100976.53
2023-05-08T13:06:57.276Z,100972.47
2023-05-08T13:09:25.259Z,100972.22
2023-05-08T13:11:53.606Z,100969.81
2023-05-08T13:14:21.597Z,100968.06
2023-05-08T13:16:50.470Z,100960.75
2023-05-08T13:19:20.053Z,100972.97
2023-05-08T13:21:48.359Z,100964.41
2023-05-08T13:24:16.528Z,100956.41
2023-05-08T13:26:45.978Z,100955.53
2023-05-08T13:29:13.958Z,100950.50
2023-05-08T13:31:42.177Z,100953.84
2023-05-08T13:34:10.257Z,100957.00
2023-05-08T13:36:39.859Z,100955.38
2023-05-08T13:39:08.138Z,100956.59
2023-05-08T13:41:36.391Z,100953.72
2023-05-08T13:44:04.414Z,100951.41
2023-05-08T13:46:32.695Z,100954.84
2023-05-08T13:49:00.721Z,100947.50
2023-05-08T13:51:28.926Z,100952.72
2023-05-08T13:53:58.332Z,100951.16
2023-05-08T13:56:26.882Z,100944.28
2023-05-08T13:58:55.148Z,100947.22
2023-05-08T14:01:26.826Z,100952.03
2023-05-08T14:03:55.598Z,100949.47
2023-05-08T14:06:24.115Z,100949.03
2023-05-08T14:08:54.413Z,100946.97
2023-05-08T14:11:25.913Z,100940.84
2023-05-08T14:13:53.953Z,100940.47
2023-05-08T14:16:22.475Z,100939.69
2023-05-08T14:18:50.511Z,100938.44
2023-05-08T14:21:19.341Z,100931.16
2023-05-08T14:23:47.327Z,100931.28
2023-05-08T14:26:15.861Z,100926.09
2023-05-08T14:28:46.193Z,100929.09
2023-05-08T14:31:14.523Z,100927.97
2023-05-08T14:33:42.601Z,100931.91
2023-05-08T14:36:10.995Z,100929.09
2023-05-08T14:38:39.340Z,100928.84
2023-05-08T14:41:07.559Z,100922.22
2023-05-08T14:43:35.568Z,100924.78
2023-05-08T14:46:05.285Z,100921.91
2023-05-08T14:48:33.311Z,100915.06
2023-05-08T14:51:01.530Z,100921.03
2023-05-08T14:53:29.625Z,100915.78
2023-05-08T14:55:59.858Z,100919.03
2023-05-08T14:58:28.422Z,100908.75
2023-05-08T15:00:56.687Z,100907.50
2023-05-08T15:03:26.365Z,100902.97
2023-05-08T15:05:54.876Z,100912.53
2023-05-08T15:08:22.929Z,100901.00
2023-05-08T15:10:51.133Z,100906.22
2023-05-08T15:13:19.203Z,100904.06
2023-05-08T15:15:47.693Z,100908.00
2023-05-08T15:18:15.693Z,100908.50
2023-05-08T15:20:45.394Z,100910.56
2023-05-08T15:23:13.466Z,100907.25
2023-05-08T15:25:41.748Z,100908.53
2023-05-08T15:28:09.955Z,100909.81
2023-05-08T15:30:38.268Z,100912.91
2023-05-08T15:33:06.377Z,100905.66
2023-05-08T15:35:34.980Z,100913.50
2023-05-08T15:38:06.577Z,100906.53
2023-05-08T15:40:35.203Z,100909.94
2023-05-08T15:43:03.934Z,100914.19
2023-05-08T15:45:32.211Z,100918.16
2023-05-08T15:48:00.803Z,100911.94
2023-05-08T15:50:29.618Z,100916.59
2023-05-08T15:52:57.941Z,100916.59
2023-05-08T15:55:27.542Z,100913.88
2023-05-08T15:57:55.588Z,100916.31
2023-05-08T16:00:27.256Z,100916.81
2023-05-08T16:02:58.148Z,100915.69
2023-05-08T16:05:26.547Z,100913.88
2023-05-08T16:07:55.578Z,100922.72
2023-05-08T16:10:23.857Z,100921.03
2023-05-08T16:12:53.344Z,100935.69
2023-05-08T16:15:21.629Z,100926.28
2023-05-08T16:17:49.709Z,100930.28
2023-05-08T16:20:17.977Z,100931.53
2023-05-08T16:22:46.011Z,100931.34
2023-05-08T16:25:14.532Z,100930.09
2023-05-08T16:27:42.655Z,100923.75
2023-05-08T16:30:13.312Z,100921.13
2023-05-08T16:32:43.078Z,100916.69
2023-05-08T16:35:33.900Z,100919.91
2023-05-08T16:38:02.911Z,100907.53
2023-05-08T16:40:32.158Z,100910.09
2023-05-08T16:43:00.254Z,100904.50
2023-05-08T16:45:29.984Z,100914.88
2023-05-08T16:47:58.099Z,100914.25
2023-05-08T16:50:26.434Z,100908.72
2023-05-08T16:52:55.458Z,100910.78
2023-05-08T16:55:23.880Z,100906.19
2023-05-08T16:57:53.524Z,100906.00
2023-05-08T17:00:22.721Z,100897.34
2023-05-08T17:02:52.279Z,100897.06
2023-05-08T17:05:20.711Z,100897.59
2023-05-08T17:07:48.707Z,100893.16
2023-05-08T17:10:17.218Z,100903.16
2023-05-08T17:12:45.299Z,100894.41
2023-05-08T17:15:13.835Z,100886.78
2023-05-08T17:17:42.490Z,100886.63
2023-05-08T17:20:13.968Z,100895.63
2023-05-08T17:22:42.439Z,100890.72
2023-05-08T17:25:10.644Z,100896.50
2023-05-08T17:27:38.973Z,100902.44
2023-05-08T17:30:11.897Z,100889.38
2023-05-08T17:32:40.493Z,100896.13
2023-05-08T17:35:09.662Z,100897.25
2023-05-08T17:37:39.041Z,100896.63
2023-05-08T17:40:09.691Z,100901.53
2023-05-08T17:42:37.690Z,100897.72
2023-05-08T17:45:07.312Z,100902.06
2023-05-08T17:47:35.387Z,100903.88
2023-05-08T17:50:04.761Z,100913.63
2023-05-08T17:52:32.806Z,100910.44
2023-05-08T17:55:02.336Z,100901.97
2023-05-08T17:57:30.330Z,100910.69
2023-05-08T17:59:58.568Z,100912.59
2023-05-08T18:02:26.697Z,100904.94
2023-05-08T18:04:55.080Z,100909.81
2023-05-08T18:07:23.097Z,100919.75
2023-05-08T18:09:51.313Z,100923.06
2023-05-08T18:12:20.710Z,100920.59
2023-05-08T18:14:49.015Z,100922.19
2023-05-08T18:17:19.180Z,100917.81
2023-05-08T18:19:47.561Z,100919.44
2023-05-08T18:22:15.527Z,100914.84
2023-05-08T18:24:45.464Z,100918.22
2023-05-08T18:27:13.422Z,100918.84
2023-05-08T18:29:43.469Z,100919.84
2023-05-08T18:32:12.001Z,100917.97
2023-05-08T18:34:40.919Z,100927.72
2023-05-08T18:37:08.995Z,100933.34
2023-05-08T18:39:37.265Z,100931.81
2023-05-08T18:42:05.431Z,100923.13
2023-05-08T18:44:33.831Z,100928.69
2023-05-08T18:47:05.133Z,100911.47
2023-05-08T18:49:33.385Z,100932.00
2023-05-08T18:52:01.345Z,100930.97
2023-05-08T18:54:29.602Z,100934.84
2023-05-08T18:56:57.632Z,100929.47
2023-05-08T18:59:25.922Z,100940.28
2023-05-08T19:01:53.926Z,100940.63
2023-05-08T19:04:23.546Z,100943.47
2023-05-08T19:06:51.654Z,100941.19
2023-05-08T19:09:19.979Z,100938.06
2023-05-08T19:11:48.019Z,100943.16
2023-05-08T19:14:16.644Z,100935.75
2023-05-08T19:16:44.827Z,100937.72
2023-05-08T19:19:13.170Z,100936.25
2023-05-08T19:21:42.525Z,100941.78
2023-05-08T19:24:10.791Z,100931.97
2023-05-08T19:26:38.779Z,100931.56
2023-05-08T19:29:07.098Z,100938.56
2023-05-08T19:31:35.244Z,100939.50
2023-05-08T19:34:03.735Z,100939.25
2023-05-08T19:36:32.412Z,100941.44
2023-05-08T19:39:02.307Z,100922.25
2023-05-08T19:41:30.415Z,100942.00
2023-05-08T19:43:58.744Z,100948.38
2023-05-08T19:46:26.766Z,100933.09
2023-05-08T19:48:55.101Z,100940.56
2023-05-08T19:51:23.460Z,100932.38
2023-05-08T19:53:51.696Z,100934.78
2023-05-08T19:56:21.080Z,100936.28
2023-05-08T19:58:49.375Z,100932.09
2023-05-08T20:01:17.530Z,100933.31
2023-05-08T20:03:45.869Z,100933.09
2023-05-08T20:06:13.992Z,100927.94
2023-05-08T20:08:42.217Z,100927.06
2023-05-08T20:11:11.695Z,100933.44
2023-05-08T20:13:41.472Z,100928.19
2023-05-08T20:16:09.766Z,100933.13
2023-05-08T20:18:38.058Z,100935.28
2023-05-08T20:21:06.119Z,100928.41
2023-05-08T20:23:34.372Z,100932.19
2023-05-08T20:26:04.233Z,100938.19
2023-05-08T20:28:32.632Z,100939.28
2023-05-08T20:31:02.134Z,100933.16
2023-05-08T20:33:30.359Z,100933.97
2023-05-08T20:35:58.397Z,100935.56
2023-05-08T20:38:26.765Z,100932.09
2023-05-08T20:40:58.202Z,100929.66
2023-05-08T20:43:28.540Z,100930.75
2023-05-08T20:45:56.592Z,100923.81
2023-05-08T20:48:26.194Z,100923.00
2023-05-08T20:50:54.258Z,100921.09
2023-05-08T20:53:22.497Z,100921.09
2023-05-08T20:55:50.513Z,100918.84
2023-05-08T20:58:18.802Z,100915.72
2023-05-08T21:00:46.888Z,100914.56
2023-05-08T21:03:15.182Z,100908.13
2023-05-08T21:05:44.496Z,100898.88
2023-05-08T21:08:12.911Z,100904.38
2023-05-08T21:10:40.964Z,100908.41
2023-05-08T21:13:09.290Z,100909.22
2023-05-08T21:15:37.298Z,100905.00
2023-05-08T21:18:05.808Z,100915.59
2023-05-08T21:20:34.635Z,100898.38
2023-05-08T21:23:04.529Z,100900.63
2023-05-08T21:25:32.549Z,100911.88
2023-05-08T21:28:00.834Z,100900.53
2023-05-08T21:30:28.874Z,100894.22
2023-05-08T21:32:57.273Z,100897.56
2023-05-08T21:35:25.380Z,100901.84
2023-05-08T21:37:54.803Z,100894.13
2023-05-08T21:40:24.248Z,100896.56
2023-05-08T21:42:52.461Z,100894.47
2023-05-08T21:45:20.844Z,100898.22
2023-05-08T21:47:49.169Z,100884.63
2023-05-08T21:50:17.308Z,100889.75
2023-05-08T21:52:45.566Z,100894.56
2023-05-08T21:55:13.817Z,100890.78
2023-05-08T21:57:43.653Z,100890.28
2023-05-08T22:00:12.705Z,100891.34
2023-05-08T22:02:47.852Z,100886.47
2023-05-08T22:05:16.181Z,100881.00
2023-05-08T22:07:44.615Z,100889.56
2023-05-08T22:10:13.799Z,100891.72
2023-05-08T22:12:43.439Z,100881.09
2023-05-08T22:15:25.585Z,100874.47
2023-05-08T22:17:57.820Z,100874.25
2023-05-08T22:20:26.160Z,100868.88
2023-05-08T22:22:54.426Z,100871.38
2023-05-08T22:25:22.567Z,100864.41
2023-05-08T22:27:52.201Z,100863.13
2023-05-08T22:30:20.359Z,100860.50
2023-05-08T22:32:54.365Z,100861.22
2023-05-08T22:35:23.889Z,100861.69
2023-05-08T22:37:52.897Z,100853.47
2023-05-08T22:40:21.981Z,100849.72
2023-05-08T22:42:53.411Z,100846.53
2023-05-08T22:45:21.534Z,100843.06
2023-05-08T22:47:49.835Z,100847.06
2023-05-08T22:50:18.088Z,100835.22
2023-05-08T22:52:46.633Z,100837.72
2023-05-08T22:55:16.402Z,100834.56
2023-05-08T22:57:45.113Z,100829.75
2023-05-08T23:00:16.155Z,100829.78
2023-05-08T23:02:44.764Z,100833.09
2023-05-08T23:05:13.090Z,100828.81
2023-05-08T23:07:41.982Z,100824.03
2023-05-08T23:10:10.830Z,100825.63
2023-05-08T23:12:39.177Z,100821.88
2023-05-08T23:15:08.112Z,100828.25
2023-05-08T23:17:37.802Z,100820.63
2023-05-08T23:20:07.017Z,100813.13
2023-05-08T23:22:35.270Z,100804.66
2023-05-08T23:25:03.648Z,100811.25
2023-05-08T23:27:31.927Z,100816.03
2023-05-08T23:29:59.954Z,100801.59
2023-05-08T23:32:28.172Z,100805.94
2023-05-08T23:34:57.553Z,100803.31
2023-05-08T23:37:25.829Z,100808.13
2023-05-08T23:39:53.804Z,100798.53
2023-05-08T23:42:22.020Z,100799.09
2023-05-08T23:44:50.030Z,100795.88
2023-05-08T23:47:19.120Z,100807.44
2023-05-08T23:49:47.203Z,100794.13
2023-05-08T23:52:17.939Z,100796.53
2023-05-08T23:54:46.053Z,100785.84
2023-05-08T23:57:14.333Z,100787.28
2023-05-08T23:59:42.402Z,100789.66
